KASX/ASX METAR and TAF weather

Enter ICAO airport designator
Station Type Date Time Source
KASX METAR 2022/01/19 19:27 UTC NOAA

KASX 191927Z AUTO 29011KT 10SM BKN029 OVC035 M14/M19 A3027 RMK AO2 T11391194


Station Type Date Time Source
KASX Decoded METAR 2022/01/19 19:27 UTC NOAA

ASHLAND KENNEDY MEMORIAL, WI, United States (KASX) 46-33N 090-55W 251M
Jan 19, 2022 - 02:27 PM EST / 2022.01.19 1927 UTC
Wind: from the WNW (290 degrees) at 13 MPH (11 KT):0
Visibility: 10 mile(s):0
Sky conditions: overcast
Temperature: 7.0 F (-13.9 C)
Windchill: -9 F (-23 C):2
Dew Point: -2.9 F (-19.4 C)
Relative Humidity: 63%
Pressure (altimeter): 30.27 in. Hg (1025 hPa)
ob: KASX 191927Z AUTO 29011KT 10SM BKN029 OVC035 M14/M19 A3027 RMK AO2 T11391194
cycle: 19

Station Type Date Time Source
KASX TAF UTC NOAA

Error!

Example: see airport list